Terminal Aerodrome Forecast
Issued by NWS

Home | Current Version | Previous Version | Text Only | Print | Product List | Glossary On
Versions: 1 2 3 4 5 6 7 8 9 10 11 12 13 14 15 16 17 18 19 20 21 22 23 24 25 26 27 28 29 30
232
FTAK31 PANC 201013 AAA
TAFACD
TAF AMD
PACD 201013Z 2010/2106 25014KT P6SM -SHSN SCT010 OVC035
      TEMPO 2010/2014 3/4SM -SN BKN010
     FM201400 30015G25KT 3SM -SHSN BKN020
     FM202000 32020KT 5SM -SHSN BR BKN025 OVC035=

USA.gov is the U.S. government's official web portal to all federal, state and local government web resources and services.